sensor_id;sensor_type;location;lat;lon;timestamp;temperature;humidity
7129;DHT22;3606;52.930;8.644;2024-03-06T00:01:33;4.20;99.90
7129;DHT22;3606;52.930;8.644;2024-03-06T00:03:59;4.20;99.90
7129;DHT22;3606;52.930;8.644;2024-03-06T00:06:25;4.10;99.90
7129;DHT22;3606;52.930;8.644;2024-03-06T00:08:50;4.10;99.90
7129;DHT22;3606;52.930;8.644;2024-03-06T00:11:16;4.10;99.90
7129;DHT22;3606;52.930;8.644;2024-03-06T00:13:42;4.20;99.90
7129;DHT22;3606;52.930;8.644;2024-03-06T00:16:08;4.10;99.90
7129;DHT22;3606;52.930;8.644;2024-03-06T00:18:34;4.20;99.90
7129;DHT22;3606;52.930;8.644;2024-03-06T00:21:00;4.20;99.90
7129;DHT22;3606;52.930;8.644;2024-03-06T00:23:25;4.20;99.90
7129;DHT22;3606;52.930;8.644;2024-03-06T00:25:51;4.20;99.90
7129;DHT22;3606;52.930;8.644;2024-03-06T00:28:17;4.20;99.90
7129;DHT22;3606;52.930;8.644;2024-03-06T00:30:42;4.20;99.90
7129;DHT22;3606;52.930;8.644;2024-03-06T00:33:08;4.20;99.90
7129;DHT22;3606;52.930;8.644;2024-03-06T00:35:34;4.20;99.90
7129;DHT22;3606;52.930;8.644;2024-03-06T00:37:59;4.20;99.90
7129;DHT22;3606;52.930;8.644;2024-03-06T00:40:28;4.20;99.90
7129;DHT22;3606;52.930;8.644;2024-03-06T00:42:56;4.20;99.90
7129;DHT22;3606;52.930;8.644;2024-03-06T00:45:22;4.30;99.90
7129;DHT22;3606;52.930;8.644;2024-03-06T00:47:48;4.20;99.90
7129;DHT22;3606;52.930;8.644;2024-03-06T00:50:13;4.10;99.90
7129;DHT22;3606;52.930;8.644;2024-03-06T00:52:41;4.20;99.90
7129;DHT22;3606;52.930;8.644;2024-03-06T00:55:08;4.20;99.90
7129;DHT22;3606;52.930;8.644;2024-03-06T00:57:34;4.20;99.90
7129;DHT22;3606;52.930;8.644;2024-03-06T00:59:59;4.30;99.90
7129;DHT22;3606;52.930;8.644;2024-03-06T01:02:25;4.20;99.90
7129;DHT22;3606;52.930;8.644;2024-03-06T01:04:51;4.20;99.90
7129;DHT22;3606;52.930;8.644;2024-03-06T01:07:16;4.20;99.90
7129;DHT22;3606;52.930;8.644;2024-03-06T01:09:42;4.20;99.90
7129;DHT22;3606;52.930;8.644;2024-03-06T01:12:08;4.20;99.90
7129;DHT22;3606;52.930;8.644;2024-03-06T01:14:33;4.20;99.90
7129;DHT22;3606;52.930;8.644;2024-03-06T01:16:59;4.20;99.90
7129;DHT22;3606;52.930;8.644;2024-03-06T01:19:25;4.20;99.90
7129;DHT22;3606;52.930;8.644;2024-03-06T01:21:51;4.10;99.90
7129;DHT22;3606;52.930;8.644;2024-03-06T01:24:17;4.10;99.90
7129;DHT22;3606;52.930;8.644;2024-03-06T01:26:43;4.20;99.90
7129;DHT22;3606;52.930;8.644;2024-03-06T01:29:08;4.20;99.90
7129;DHT22;3606;52.930;8.644;2024-03-06T01:31:34;4.20;99.90
7129;DHT22;3606;52.930;8.644;2024-03-06T01:34:00;4.20;99.90
7129;DHT22;3606;52.930;8.644;2024-03-06T01:36:25;4.10;99.90
7129;DHT22;3606;52.930;8.644;2024-03-06T01:38:51;4.10;99.90
7129;DHT22;3606;52.930;8.644;2024-03-06T01:41:16;4.20;99.90
7129;DHT22;3606;52.930;8.644;2024-03-06T01:43:43;4.20;99.90
7129;DHT22;3606;52.930;8.644;2024-03-06T01:46:09;4.20;99.90
7129;DHT22;3606;52.930;8.644;2024-03-06T01:48:35;4.20;99.90
7129;DHT22;3606;52.930;8.644;2024-03-06T01:51:02;4.20;99.90
7129;DHT22;3606;52.930;8.644;2024-03-06T01:53:31;4.20;99.90
7129;DHT22;3606;52.930;8.644;2024-03-06T01:55:57;4.20;99.90
7129;DHT22;3606;52.930;8.644;2024-03-06T01:58:24;4.30;99.90
7129;DHT22;3606;52.930;8.644;2024-03-06T02:00:50;4.30;99.90
7129;DHT22;3606;52.930;8.644;2024-03-06T02:03:17;4.30;99.90
7129;DHT22;3606;52.930;8.644;2024-03-06T02:05:42;4.30;99.90
7129;DHT22;3606;52.930;8.644;2024-03-06T02:08:09;4.20;99.90
7129;DHT22;3606;52.930;8.644;2024-03-06T02:10:34;4.30;99.90
7129;DHT22;3606;52.930;8.644;2024-03-06T02:13:00;4.30;99.90
7129;DHT22;3606;52.930;8.644;2024-03-06T02:15:26;4.30;99.90
7129;DHT22;3606;52.930;8.644;2024-03-06T02:17:52;4.20;99.90
7129;DHT22;3606;52.930;8.644;2024-03-06T02:20:25;4.30;99.90
7129;DHT22;3606;52.930;8.644;2024-03-06T02:22:51;4.20;99.90
7129;DHT22;3606;52.930;8.644;2024-03-06T02:25:17;4.20;99.90
7129;DHT22;3606;52.930;8.644;2024-03-06T02:27:44;4.20;99.90
7129;DHT22;3606;52.930;8.644;2024-03-06T02:30:10;4.20;99.90
7129;DHT22;3606;52.930;8.644;2024-03-06T02:32:36;4.20;99.90
7129;DHT22;3606;52.930;8.644;2024-03-06T02:35:02;4.20;99.90
7129;DHT22;3606;52.930;8.644;2024-03-06T02:37:28;4.20;99.90
7129;DHT22;3606;52.930;8.644;2024-03-06T02:39:54;4.20;99.90
7129;DHT22;3606;52.930;8.644;2024-03-06T02:42:20;4.20;99.90
7129;DHT22;3606;52.930;8.644;2024-03-06T02:44:45;4.20;99.90
7129;DHT22;3606;52.930;8.644;2024-03-06T02:47:11;4.20;99.90
7129;DHT22;3606;52.930;8.644;2024-03-06T02:49:37;4.20;99.90
7129;DHT22;3606;52.930;8.644;2024-03-06T02:52:03;4.10;99.90
7129;DHT22;3606;52.930;8.644;2024-03-06T02:54:28;4.10;99.90
7129;DHT22;3606;52.930;8.644;2024-03-06T02:56:54;4.10;99.90
7129;DHT22;3606;52.930;8.644;2024-03-06T02:59:20;4.10;99.90
7129;DHT22;3606;52.930;8.644;2024-03-06T03:01:45;4.10;99.90
7129;DHT22;3606;52.930;8.644;2024-03-06T03:04:11;4.10;99.90
7129;DHT22;3606;52.930;8.644;2024-03-06T03:06:37;4.10;99.90
7129;DHT22;3606;52.930;8.644;2024-03-06T03:09:02;4.10;99.90
7129;DHT22;3606;52.930;8.644;2024-03-06T03:11:31;4.10;99.90
7129;DHT22;3606;52.930;8.644;2024-03-06T03:13:57;4.10;99.90
7129;DHT22;3606;52.930;8.644;2024-03-06T03:16:23;4.10;99.90
7129;DHT22;3606;52.930;8.644;2024-03-06T03:18:48;4.10;99.90
7129;DHT22;3606;52.930;8.644;2024-03-06T03:21:14;4.10;99.90
7129;DHT22;3606;52.930;8.644;2024-03-06T03:23:40;4.10;99.90
7129;DHT22;3606;52.930;8.644;2024-03-06T03:26:07;4.10;99.90
7129;DHT22;3606;52.930;8.644;2024-03-06T03:28:32;4.10;99.90
7129;DHT22;3606;52.930;8.644;2024-03-06T03:30:58;4.10;99.90
7129;DHT22;3606;52.930;8.644;2024-03-06T03:33:24;4.10;99.90
7129;DHT22;3606;52.930;8.644;2024-03-06T03:35:50;4.10;99.90
7129;DHT22;3606;52.930;8.644;2024-03-06T03:38:16;4.10;99.90
7129;DHT22;3606;52.930;8.644;2024-03-06T03:40:42;4.10;99.90
7129;DHT22;3606;52.930;8.644;2024-03-06T03:43:08;4.10;99.90
7129;DHT22;3606;52.930;8.644;2024-03-06T03:45:34;4.10;99.90
7129;DHT22;3606;52.930;8.644;2024-03-06T03:48:01;4.10;99.90
7129;DHT22;3606;52.930;8.644;2024-03-06T03:50:30;4.00;99.90
7129;DHT22;3606;52.930;8.644;2024-03-06T03:52:56;4.00;99.90
7129;DHT22;3606;52.930;8.644;2024-03-06T03:55:24;4.10;99.90
7129;DHT22;3606;52.930;8.644;2024-03-06T03:57:50;4.10;99.90
7129;DHT22;3606;52.930;8.644;2024-03-06T04:00:16;4.10;99.90
7129;DHT22;3606;52.930;8.644;2024-03-06T04:02:42;4.10;99.90
7129;DHT22;3606;52.930;8.644;2024-03-06T04:05:08;4.10;99.90
7129;DHT22;3606;52.930;8.644;2024-03-06T04:07:35;4.10;99.90
7129;DHT22;3606;52.930;8.644;2024-03-06T04:10:01;4.10;99.90
7129;DHT22;3606;52.930;8.644;2024-03-06T04:12:27;4.10;99.90
7129;DHT22;3606;52.930;8.644;2024-03-06T04:14:53;4.10;99.90
7129;DHT22;3606;52.930;8.644;2024-03-06T04:17:18;4.10;99.90
7129;DHT22;3606;52.930;8.644;2024-03-06T04:19:44;4.10;99.90
7129;DHT22;3606;52.930;8.644;2024-03-06T04:22:10;4.10;99.90
7129;DHT22;3606;52.930;8.644;2024-03-06T04:24:36;4.00;99.90
7129;DHT22;3606;52.930;8.644;2024-03-06T04:27:01;4.10;99.90
7129;DHT22;3606;52.930;8.644;2024-03-06T04:29:27;4.10;99.90
7129;DHT22;3606;52.930;8.644;2024-03-06T04:31:53;4.00;99.90
7129;DHT22;3606;52.930;8.644;2024-03-06T04:34:18;4.00;99.90
7129;DHT22;3606;52.930;8.644;2024-03-06T04:36:45;4.00;99.90
7129;DHT22;3606;52.930;8.644;2024-03-06T04:39:10;4.10;99.90
7129;DHT22;3606;52.930;8.644;2024-03-06T04:41:37;4.10;99.90
7129;DHT22;3606;52.930;8.644;2024-03-06T04:44:03;4.00;99.90
7129;DHT22;3606;52.930;8.644;2024-03-06T04:46:28;4.10;99.90
7129;DHT22;3606;52.930;8.644;2024-03-06T04:48:54;4.10;99.90
7129;DHT22;3606;52.930;8.644;2024-03-06T04:51:20;4.00;99.90
7129;DHT22;3606;52.930;8.644;2024-03-06T04:53:46;4.00;99.90
7129;DHT22;3606;52.930;8.644;2024-03-06T04:56:11;4.00;99.90
7129;DHT22;3606;52.930;8.644;2024-03-06T04:58:38;4.00;99.90
7129;DHT22;3606;52.930;8.644;2024-03-06T05:01:03;4.10;99.90
7129;DHT22;3606;52.930;8.644;2024-03-06T05:03:29;4.10;99.90
7129;DHT22;3606;52.930;8.644;2024-03-06T05:05:55;4.00;99.90
7129;DHT22;3606;52.930;8.644;2024-03-06T05:08:21;4.00;99.90
7129;DHT22;3606;52.930;8.644;2024-03-06T05:10:47;4.00;99.90
7129;DHT22;3606;52.930;8.644;2024-03-06T05:13:12;4.00;99.90
7129;DHT22;3606;52.930;8.644;2024-03-06T05:15:38;4.00;99.90
7129;DHT22;3606;52.930;8.644;2024-03-06T05:18:05;4.10;99.90
7129;DHT22;3606;52.930;8.644;2024-03-06T05:20:31;4.00;99.90
7129;DHT22;3606;52.930;8.644;2024-03-06T05:22:57;4.10;99.90
7129;DHT22;3606;52.930;8.644;2024-03-06T05:25:22;4.10;99.90
7129;DHT22;3606;52.930;8.644;2024-03-06T05:27:48;4.10;99.90
7129;DHT22;3606;52.930;8.644;2024-03-06T05:30:14;4.10;99.90
7129;DHT22;3606;52.930;8.644;2024-03-06T05:32:40;4.10;99.90
7129;DHT22;3606;52.930;8.644;2024-03-06T05:35:07;4.10;99.90
7129;DHT22;3606;52.930;8.644;2024-03-06T05:37:35;4.10;99.90
7129;DHT22;3606;52.930;8.644;2024-03-06T05:40:01;4.10;99.90
7129;DHT22;3606;52.930;8.644;2024-03-06T05:42:30;4.10;99.90
7129;DHT22;3606;52.930;8.644;2024-03-06T05:44:59;4.00;99.90
7129;DHT22;3606;52.930;8.644;2024-03-06T05:47:36;4.00;99.90
7129;DHT22;3606;52.930;8.644;2024-03-06T05:50:02;4.00;99.90
7129;DHT22;3606;52.930;8.644;2024-03-06T05:52:31;4.00;99.90
7129;DHT22;3606;52.930;8.644;2024-03-06T05:54:56;4.00;99.90
7129;DHT22;3606;52.930;8.644;2024-03-06T05:57:22;4.00;99.90
7129;DHT22;3606;52.930;8.644;2024-03-06T05:59:48;4.00;99.90
7129;DHT22;3606;52.930;8.644;2024-03-06T06:02:13;4.10;99.90
7129;DHT22;3606;52.930;8.644;2024-03-06T06:04:42;4.10;99.90
7129;DHT22;3606;52.930;8.644;2024-03-06T06:07:07;4.10;99.90
7129;DHT22;3606;52.930;8.644;2024-03-06T06:09:33;4.00;99.90
7129;DHT22;3606;52.930;8.644;2024-03-06T06:11:59;4.00;99.90
7129;DHT22;3606;52.930;8.644;2024-03-06T06:14:25;4.10;99.90
7129;DHT22;3606;52.930;8.644;2024-03-06T06:16:52;4.10;99.90
7129;DHT22;3606;52.930;8.644;2024-03-06T06:19:18;4.10;99.90
7129;DHT22;3606;52.930;8.644;2024-03-06T06:21:44;4.10;99.90
7129;DHT22;3606;52.930;8.644;2024-03-06T06:24:09;4.10;99.90
7129;DHT22;3606;52.930;8.644;2024-03-06T06:26:35;4.10;99.90
7129;DHT22;3606;52.930;8.644;2024-03-06T06:29:01;4.10;99.90
7129;DHT22;3606;52.930;8.644;2024-03-06T06:31:26;3.90;99.90
7129;DHT22;3606;52.930;8.644;2024-03-06T06:33:53;3.90;99.90
7129;DHT22;3606;52.930;8.644;2024-03-06T06:36:19;3.90;99.90
7129;DHT22;3606;52.930;8.644;2024-03-06T06:38:46;3.80;99.90
7129;DHT22;3606;52.930;8.644;2024-03-06T06:41:12;3.80;99.90
7129;DHT22;3606;52.930;8.644;2024-03-06T06:43:39;3.80;99.90
7129;DHT22;3606;52.930;8.644;2024-03-06T06:46:05;3.80;99.90
7129;DHT22;3606;52.930;8.644;2024-03-06T06:48:31;3.80;99.90
7129;DHT22;3606;52.930;8.644;2024-03-06T06:50:59;3.80;99.90
7129;DHT22;3606;52.930;8.644;2024-03-06T06:53:26;3.80;99.90
7129;DHT22;3606;52.930;8.644;2024-03-06T06:55:51;3.80;99.90
7129;DHT22;3606;52.930;8.644;2024-03-06T06:58:17;3.80;99.90
7129;DHT22;3606;52.930;8.644;2024-03-06T07:00:43;3.70;99.90
7129;DHT22;3606;52.930;8.644;2024-03-06T07:03:08;3.70;99.90
7129;DHT22;3606;52.930;8.644;2024-03-06T07:05:34;3.70;99.90
7129;DHT22;3606;52.930;8.644;2024-03-06T07:08:00;3.70;99.90
7129;DHT22;3606;52.930;8.644;2024-03-06T07:10:25;3.80;99.90
7129;DHT22;3606;52.930;8.644;2024-03-06T07:12:51;3.80;99.90
7129;DHT22;3606;52.930;8.644;2024-03-06T07:15:17;3.90;99.90
7129;DHT22;3606;52.930;8.644;2024-03-06T07:17:43;3.80;99.90
7129;DHT22;3606;52.930;8.644;2024-03-06T07:20:09;3.90;99.90
7129;DHT22;3606;52.930;8.644;2024-03-06T07:22:35;4.00;99.90
7129;DHT22;3606;52.930;8.644;2024-03-06T07:25:01;4.00;99.90
7129;DHT22;3606;52.930;8.644;2024-03-06T07:27:27;4.00;99.90
7129;DHT22;3606;52.930;8.644;2024-03-06T07:29:53;4.00;99.90
7129;DHT22;3606;52.930;8.644;2024-03-06T07:32:19;3.90;99.90
7129;DHT22;3606;52.930;8.644;2024-03-06T07:34:45;4.00;99.90
7129;DHT22;3606;52.930;8.644;2024-03-06T07:37:11;4.10;99.90
7129;DHT22;3606;52.930;8.644;2024-03-06T07:39:36;4.10;99.90
7129;DHT22;3606;52.930;8.644;2024-03-06T07:42:02;4.20;99.90
7129;DHT22;3606;52.930;8.644;2024-03-06T07:44:28;4.10;99.90
7129;DHT22;3606;52.930;8.644;2024-03-06T07:46:53;4.10;99.90
7129;DHT22;3606;52.930;8.644;2024-03-06T07:49:20;4.10;99.90
7129;DHT22;3606;52.930;8.644;2024-03-06T07:51:47;4.20;99.90
7129;DHT22;3606;52.930;8.644;2024-03-06T07:54:13;4.30;99.90
7129;DHT22;3606;52.930;8.644;2024-03-06T07:56:39;4.40;99.90
7129;DHT22;3606;52.930;8.644;2024-03-06T07:59:04;4.40;99.90
7129;DHT22;3606;52.930;8.644;2024-03-06T08:01:32;4.40;99.90
7129;DHT22;3606;52.930;8.644;2024-03-06T08:03:58;4.50;99.90
7129;DHT22;3606;52.930;8.644;2024-03-06T08:06:24;4.50;99.90
7129;DHT22;3606;52.930;8.644;2024-03-06T08:08:50;4.60;99.90
7129;DHT22;3606;52.930;8.644;2024-03-06T08:11:17;4.60;99.90
7129;DHT22;3606;52.930;8.644;2024-03-06T08:13:43;4.70;99.90
7129;DHT22;3606;52.930;8.644;2024-03-06T08:16:09;4.80;99.90
7129;DHT22;3606;52.930;8.644;2024-03-06T08:18:36;4.70;99.90
7129;DHT22;3606;52.930;8.644;2024-03-06T08:21:02;4.70;99.90
7129;DHT22;3606;52.930;8.644;2024-03-06T08:23:32;4.70;99.90
7129;DHT22;3606;52.930;8.644;2024-03-06T08:25:58;4.60;99.90
7129;DHT22;3606;52.930;8.644;2024-03-06T08:28:25;4.80;99.90
7129;DHT22;3606;52.930;8.644;2024-03-06T08:30:51;4.80;99.90
7129;DHT22;3606;52.930;8.644;2024-03-06T08:33:17;4.80;99.90
7129;DHT22;3606;52.930;8.644;2024-03-06T08:35:43;5.00;99.90
7129;DHT22;3606;52.930;8.644;2024-03-06T08:38:09;5.00;99.90
7129;DHT22;3606;52.930;8.644;2024-03-06T08:40:35;5.10;99.90
7129;DHT22;3606;52.930;8.644;2024-03-06T08:43:00;5.10;99.90
7129;DHT22;3606;52.930;8.644;2024-03-06T08:45:26;5.20;99.90
7129;DHT22;3606;52.930;8.644;2024-03-06T08:47:52;5.30;99.90
7129;DHT22;3606;52.930;8.644;2024-03-06T08:50:19;5.20;99.90
7129;DHT22;3606;52.930;8.644;2024-03-06T08:52:46;5.30;99.90
7129;DHT22;3606;52.930;8.644;2024-03-06T08:55:11;5.40;99.90
7129;DHT22;3606;52.930;8.644;2024-03-06T08:57:38;5.40;99.90
7129;DHT22;3606;52.930;8.644;2024-03-06T09:00:05;5.40;99.90
7129;DHT22;3606;52.930;8.644;2024-03-06T09:02:36;5.40;99.90
7129;DHT22;3606;52.930;8.644;2024-03-06T09:05:07;5.40;99.90
7129;DHT22;3606;52.930;8.644;2024-03-06T09:07:35;5.30;99.90
7129;DHT22;3606;52.930;8.644;2024-03-06T09:10:07;5.30;99.90
7129;DHT22;3606;52.930;8.644;2024-03-06T09:12:33;5.30;99.90
7129;DHT22;3606;52.930;8.644;2024-03-06T09:14:58;5.50;99.90
7129;DHT22;3606;52.930;8.644;2024-03-06T09:17:26;5.50;99.90
7129;DHT22;3606;52.930;8.644;2024-03-06T09:19:51;5.70;99.90
7129;DHT22;3606;52.930;8.644;2024-03-06T09:22:17;5.80;99.90
7129;DHT22;3606;52.930;8.644;2024-03-06T09:24:43;5.90;99.90
7129;DHT22;3606;52.930;8.644;2024-03-06T09:27:08;6.20;99.90
7129;DHT22;3606;52.930;8.644;2024-03-06T09:29:34;6.40;99.90
7129;DHT22;3606;52.930;8.644;2024-03-06T09:31:59;6.50;99.90
7129;DHT22;3606;52.930;8.644;2024-03-06T09:34:25;6.60;99.90
7129;DHT22;3606;52.930;8.644;2024-03-06T09:36:51;6.50;99.90
7129;DHT22;3606;52.930;8.644;2024-03-06T09:39:18;6.60;99.90
7129;DHT22;3606;52.930;8.644;2024-03-06T09:41:50;6.60;99.90
7129;DHT22;3606;52.930;8.644;2024-03-06T09:44:17;6.50;99.90
7129;DHT22;3606;52.930;8.644;2024-03-06T09:46:44;6.50;99.90
7129;DHT22;3606;52.930;8.644;2024-03-06T09:49:19;6.30;99.90
7129;DHT22;3606;52.930;8.644;2024-03-06T09:51:46;6.40;99.90
7129;DHT22;3606;52.930;8.644;2024-03-06T09:54:13;6.50;99.90
7129;DHT22;3606;52.930;8.644;2024-03-06T09:56:43;6.60;99.90
7129;DHT22;3606;52.930;8.644;2024-03-06T09:59:10;6.50;99.90
7129;DHT22;3606;52.930;8.644;2024-03-06T10:01:45;6.40;99.90
7129;DHT22;3606;52.930;8.644;2024-03-06T10:04:27;6.40;99.90
7129;DHT22;3606;52.930;8.644;2024-03-06T10:06:54;6.50;99.90
7129;DHT22;3606;52.930;8.644;2024-03-06T10:09:21;6.60;99.90
7129;DHT22;3606;52.930;8.644;2024-03-06T10:11:47;6.60;99.90
7129;DHT22;3606;52.930;8.644;2024-03-06T10:14:13;6.60;99.90
7129;DHT22;3606;52.930;8.644;2024-03-06T10:16:52;6.70;99.90
7129;DHT22;3606;52.930;8.644;2024-03-06T10:19:19;6.90;99.90
7129;DHT22;3606;52.930;8.644;2024-03-06T10:21:47;7.00;99.90
7129;DHT22;3606;52.930;8.644;2024-03-06T10:24:23;7.00;99.90
7129;DHT22;3606;52.930;8.644;2024-03-06T10:26:50;7.10;99.90
7129;DHT22;3606;52.930;8.644;2024-03-06T10:29:17;7.20;99.90
7129;DHT22;3606;52.930;8.644;2024-03-06T10:31:57;7.20;99.90
7129;DHT22;3606;52.930;8.644;2024-03-06T10:34:29;7.40;99.90
7129;DHT22;3606;52.930;8.644;2024-03-06T10:39:20;7.60;99.90
7129;DHT22;3606;52.930;8.644;2024-03-06T10:41:52;7.80;99.90
7129;DHT22;3606;52.930;8.644;2024-03-06T10:44:24;7.80;99.90
7129;DHT22;3606;52.930;8.644;2024-03-06T10:47:05;7.80;99.90
7129;DHT22;3606;52.930;8.644;2024-03-06T10:49:32;8.20;99.90
7129;DHT22;3606;52.930;8.644;2024-03-06T10:52:04;8.40;99.90
7129;DHT22;3606;52.930;8.644;2024-03-06T10:54:33;8.40;99.90
7129;DHT22;3606;52.930;8.644;2024-03-06T10:57:04;8.50;99.90
7129;DHT22;3606;52.930;8.644;2024-03-06T10:59:30;8.50;99.90
7129;DHT22;3606;52.930;8.644;2024-03-06T11:01:57;8.60;99.90
7129;DHT22;3606;52.930;8.644;2024-03-06T11:04:26;8.60;99.90
7129;DHT22;3606;52.930;8.644;2024-03-06T11:06:56;8.60;99.90
7129;DHT22;3606;52.930;8.644;2024-03-06T11:09:22;8.80;99.90
7129;DHT22;3606;52.930;8.644;2024-03-06T11:11:49;8.70;99.90
7129;DHT22;3606;52.930;8.644;2024-03-06T11:14:15;8.80;99.90
7129;DHT22;3606;52.930;8.644;2024-03-06T11:17:16;8.80;99.90
7129;DHT22;3606;52.930;8.644;2024-03-06T11:28:26;9.00;99.90
7129;DHT22;3606;52.930;8.644;2024-03-06T11:33:52;8.90;99.90
7129;DHT22;3606;52.930;8.644;2024-03-06T11:36:23;8.90;99.90
7129;DHT22;3606;52.930;8.644;2024-03-06T11:39:03;8.90;99.90
7129;DHT22;3606;52.930;8.644;2024-03-06T11:41:47;9.20;99.90
7129;DHT22;3606;52.930;8.644;2024-03-06T11:44:15;9.20;99.90
7129;DHT22;3606;52.930;8.644;2024-03-06T11:46:56;9.20;99.90
7129;DHT22;3606;52.930;8.644;2024-03-06T11:49:26;9.20;99.90
7129;DHT22;3606;52.930;8.644;2024-03-06T11:51:56;9.10;99.90
7129;DHT22;3606;52.930;8.644;2024-03-06T11:54:23;8.90;99.90
7129;DHT22;3606;52.930;8.644;2024-03-06T11:56:52;9.10;99.90
7129;DHT22;3606;52.930;8.644;2024-03-06T12:01:56;9.10;99.90
7129;DHT22;3606;52.930;8.644;2024-03-06T12:04:22;9.40;99.90
7129;DHT22;3606;52.930;8.644;2024-03-06T12:06:48;9.60;99.90
7129;DHT22;3606;52.930;8.644;2024-03-06T12:09:15;9.90;99.90
7129;DHT22;3606;52.930;8.644;2024-03-06T12:11:41;10.10;99.90
7129;DHT22;3606;52.930;8.644;2024-03-06T12:14:17;10.00;99.90
7129;DHT22;3606;52.930;8.644;2024-03-06T12:16:44;9.90;99.90
7129;DHT22;3606;52.930;8.644;2024-03-06T12:19:19;9.90;99.90
7129;DHT22;3606;52.930;8.644;2024-03-06T12:21:47;9.90;99.90
7129;DHT22;3606;52.930;8.644;2024-03-06T12:24:16;10.10;99.90
7129;DHT22;3606;52.930;8.644;2024-03-06T12:26:44;10.10;99.90
7129;DHT22;3606;52.930;8.644;2024-03-06T12:29:11;10.20;99.90
7129;DHT22;3606;52.930;8.644;2024-03-06T12:31:42;10.20;99.90
7129;DHT22;3606;52.930;8.644;2024-03-06T12:34:08;10.20;99.90
7129;DHT22;3606;52.930;8.644;2024-03-06T12:36:34;10.00;99.90
7129;DHT22;3606;52.930;8.644;2024-03-06T12:39:03;9.90;99.90
7129;DHT22;3606;52.930;8.644;2024-03-06T12:41:29;9.90;99.90
7129;DHT22;3606;52.930;8.644;2024-03-06T12:43:56;10.00;99.90
7129;DHT22;3606;52.930;8.644;2024-03-06T12:46:23;10.00;99.90
7129;DHT22;3606;52.930;8.644;2024-03-06T12:48:49;10.10;99.90
7129;DHT22;3606;52.930;8.644;2024-03-06T12:51:15;10.10;99.90
7129;DHT22;3606;52.930;8.644;2024-03-06T12:53:41;10.20;99.90
7129;DHT22;3606;52.930;8.644;2024-03-06T12:56:06;10.40;99.90
7129;DHT22;3606;52.930;8.644;2024-03-06T12:58:33;10.60;99.90
7129;DHT22;3606;52.930;8.644;2024-03-06T13:01:00;10.70;99.90
7129;DHT22;3606;52.930;8.644;2024-03-06T13:03:27;10.80;99.90
7129;DHT22;3606;52.930;8.644;2024-03-06T13:05:52;10.70;99.90
7129;DHT22;3606;52.930;8.644;2024-03-06T13:08:18;10.70;99.90
7129;DHT22;3606;52.930;8.644;2024-03-06T13:10:44;10.50;99.90
7129;DHT22;3606;52.930;8.644;2024-03-06T13:13:10;10.50;99.90
7129;DHT22;3606;52.930;8.644;2024-03-06T13:15:36;10.50;99.90
7129;DHT22;3606;52.930;8.644;2024-03-06T13:18:05;10.60;99.90
7129;DHT22;3606;52.930;8.644;2024-03-06T13:20:31;10.60;99.90
7129;DHT22;3606;52.930;8.644;2024-03-06T13:22:57;10.50;99.90
7129;DHT22;3606;52.930;8.644;2024-03-06T13:25:23;10.50;99.90
7129;DHT22;3606;52.930;8.644;2024-03-06T13:27:49;10.60;99.90
7129;DHT22;3606;52.930;8.644;2024-03-06T13:30:14;10.60;99.90
7129;DHT22;3606;52.930;8.644;2024-03-06T13:32:40;10.60;99.90
7129;DHT22;3606;52.930;8.644;2024-03-06T13:35:08;10.50;99.90
7129;DHT22;3606;52.930;8.644;2024-03-06T13:37:38;10.60;99.90
7129;DHT22;3606;52.930;8.644;2024-03-06T13:40:04;10.80;99.90
7129;DHT22;3606;52.930;8.644;2024-03-06T13:42:32;10.90;99.90
7129;DHT22;3606;52.930;8.644;2024-03-06T13:44:58;11.10;99.90
7129;DHT22;3606;52.930;8.644;2024-03-06T13:47:23;11.50;99.90
7129;DHT22;3606;52.930;8.644;2024-03-06T13:49:49;12.50;99.90
7129;DHT22;3606;52.930;8.644;2024-03-06T13:52:15;12.70;99.90
7129;DHT22;3606;52.930;8.644;2024-03-06T13:54:45;12.50;99.90
7129;DHT22;3606;52.930;8.644;2024-03-06T13:57:11;12.20;99.90
7129;DHT22;3606;52.930;8.644;2024-03-06T13:59:37;12.00;99.90
7129;DHT22;3606;52.930;8.644;2024-03-06T14:02:03;12.00;99.90
7129;DHT22;3606;52.930;8.644;2024-03-06T14:04:30;11.80;99.90
7129;DHT22;3606;52.930;8.644;2024-03-06T14:06:56;11.60;99.90
7129;DHT22;3606;52.930;8.644;2024-03-06T14:09:22;11.30;99.90
7129;DHT22;3606;52.930;8.644;2024-03-06T14:11:49;11.00;99.90
7129;DHT22;3606;52.930;8.644;2024-03-06T14:14:16;10.90;99.90
7129;DHT22;3606;52.930;8.644;2024-03-06T14:16:41;11.10;99.90
7129;DHT22;3606;52.930;8.644;2024-03-06T14:19:08;11.30;99.90
7129;DHT22;3606;52.930;8.644;2024-03-06T14:21:34;11.50;99.90
7129;DHT22;3606;52.930;8.644;2024-03-06T14:24:01;12.20;99.90
7129;DHT22;3606;52.930;8.644;2024-03-06T14:26:30;12.80;99.90
7129;DHT22;3606;52.930;8.644;2024-03-06T14:28:55;13.40;99.90
7129;DHT22;3606;52.930;8.644;2024-03-06T14:31:21;13.70;99.90
7129;DHT22;3606;52.930;8.644;2024-03-06T14:33:47;13.80;99.90
7129;DHT22;3606;52.930;8.644;2024-03-06T14:36:14;13.40;99.90
7129;DHT22;3606;52.930;8.644;2024-03-06T14:38:40;13.40;99.90
7129;DHT22;3606;52.930;8.644;2024-03-06T14:41:05;13.70;99.90
7129;DHT22;3606;52.930;8.644;2024-03-06T14:43:35;14.00;99.90
7129;DHT22;3606;52.930;8.644;2024-03-06T14:46:01;14.10;99.90
7129;DHT22;3606;52.930;8.644;2024-03-06T14:48:27;13.90;99.90
7129;DHT22;3606;52.930;8.644;2024-03-06T14:50:52;13.70;99.90
7129;DHT22;3606;52.930;8.644;2024-03-06T14:53:18;13.60;99.90
7129;DHT22;3606;52.930;8.644;2024-03-06T14:55:44;13.40;99.90
7129;DHT22;3606;52.930;8.644;2024-03-06T14:58:09;13.10;99.90
7129;DHT22;3606;52.930;8.644;2024-03-06T15:00:35;12.70;99.90
7129;DHT22;3606;52.930;8.644;2024-03-06T15:03:01;12.50;99.90
7129;DHT22;3606;52.930;8.644;2024-03-06T15:05:27;12.30;99.90
7129;DHT22;3606;52.930;8.644;2024-03-06T15:07:53;11.90;99.90
7129;DHT22;3606;52.930;8.644;2024-03-06T15:10:19;11.60;99.90
7129;DHT22;3606;52.930;8.644;2024-03-06T15:12:45;11.60;99.90
7129;DHT22;3606;52.930;8.644;2024-03-06T15:15:11;11.40;99.90
7129;DHT22;3606;52.930;8.644;2024-03-06T15:17:37;11.30;99.90
7129;DHT22;3606;52.930;8.644;2024-03-06T15:20:06;11.10;99.90
7129;DHT22;3606;52.930;8.644;2024-03-06T15:22:35;11.00;99.90
7129;DHT22;3606;52.930;8.644;2024-03-06T15:25:10;10.80;99.90
7129;DHT22;3606;52.930;8.644;2024-03-06T15:27:36;10.80;99.90
7129;DHT22;3606;52.930;8.644;2024-03-06T15:30:04;10.80;99.90
7129;DHT22;3606;52.930;8.644;2024-03-06T15:32:30;10.80;99.90
7129;DHT22;3606;52.930;8.644;2024-03-06T15:34:56;10.90;99.90
7129;DHT22;3606;52.930;8.644;2024-03-06T15:37:23;10.70;99.90
7129;DHT22;3606;52.930;8.644;2024-03-06T15:39:52;10.70;99.90
7129;DHT22;3606;52.930;8.644;2024-03-06T15:42:19;10.80;99.90
7129;DHT22;3606;52.930;8.644;2024-03-06T15:44:47;10.60;99.90
7129;DHT22;3606;52.930;8.644;2024-03-06T15:47:13;10.50;99.90
7129;DHT22;3606;52.930;8.644;2024-03-06T15:49:38;10.50;99.90
7129;DHT22;3606;52.930;8.644;2024-03-06T15:52:04;10.50;99.90
7129;DHT22;3606;52.930;8.644;2024-03-06T15:54:30;10.40;99.90
7129;DHT22;3606;52.930;8.644;2024-03-06T15:56:56;10.20;99.90
7129;DHT22;3606;52.930;8.644;2024-03-06T15:59:23;10.10;99.90
7129;DHT22;3606;52.930;8.644;2024-03-06T16:01:49;10.00;99.90
7129;DHT22;3606;52.930;8.644;2024-03-06T16:04:14;9.90;99.90
7129;DHT22;3606;52.930;8.644;2024-03-06T16:06:40;9.90;99.90
7129;DHT22;3606;52.930;8.644;2024-03-06T16:09:05;9.70;99.90
7129;DHT22;3606;52.930;8.644;2024-03-06T16:11:31;9.70;99.90
7129;DHT22;3606;52.930;8.644;2024-03-06T16:13:57;9.60;99.90
7129;DHT22;3606;52.930;8.644;2024-03-06T16:16:25;9.60;99.90
7129;DHT22;3606;52.930;8.644;2024-03-06T16:18:51;9.50;99.90
7129;DHT22;3606;52.930;8.644;2024-03-06T16:21:20;9.50;99.90
7129;DHT22;3606;52.930;8.644;2024-03-06T16:23:46;9.40;99.90
7129;DHT22;3606;52.930;8.644;2024-03-06T16:26:12;9.30;99.90
7129;DHT22;3606;52.930;8.644;2024-03-06T16:28:38;9.20;99.90